createdAt,value
2019-04-01T00:00:20.812Z,9.43
2019-04-01T00:02:50.082Z,8.77
2019-04-01T00:05:19.404Z,10.57
2019-04-01T00:07:48.656Z,8.03
2019-04-01T00:10:17.938Z,10.17
2019-04-01T00:12:47.464Z,9.23
2019-04-01T00:15:17.030Z,7.17
2019-04-01T00:17:46.544Z,8.50
2019-04-01T00:20:15.840Z,8.93
2019-04-01T00:22:45.243Z,12.13
2019-04-01T00:25:14.589Z,9.03
2019-04-01T00:27:43.848Z,7.97
2019-04-01T00:30:13.256Z,5.77
2019-04-01T00:32:42.502Z,10.87
2019-04-01T00:35:11.856Z,7.00
2019-04-01T00:37:41.104Z,7.93
2019-04-01T00:40:11.161Z,11.03
2019-04-01T00:42:54.095Z,7.17
2019-04-01T00:45:23.924Z,7.40
2019-04-01T00:47:53.197Z,8.90
2019-04-01T00:50:22.454Z,7.77
2019-04-01T00:52:51.880Z,10.27
2019-04-01T00:55:21.210Z,12.50
2019-04-01T00:57:50.737Z,10.23
2019-04-01T01:00:20.904Z,9.70
2019-04-01T01:02:50.187Z,7.63
2019-04-01T01:05:19.428Z,12.57
2019-04-01T01:07:48.975Z,9.93
2019-04-01T01:10:18.258Z,12.67
2019-04-01T01:12:47.524Z,13.37
2019-04-01T01:15:16.755Z,6.97
2019-04-01T01:17:45.999Z,9.93
2019-04-01T01:20:15.254Z,9.30
2019-04-01T01:22:44.513Z,9.30
2019-04-01T01:25:13.852Z,8.20
2019-04-01T01:27:43.084Z,8.70
2019-04-01T01:30:12.421Z,9.07
2019-04-01T01:32:41.662Z,8.97
2019-04-01T01:35:11.119Z,10.03
2019-04-01T01:37:40.445Z,8.43
2019-04-01T01:40:09.748Z,7.83
2019-04-01T01:42:39.011Z,8.97
2019-04-01T01:45:08.343Z,11.13
2019-04-01T01:47:37.610Z,9.87
2019-04-01T01:50:07.522Z,6.80
2019-04-01T01:52:36.779Z,7.43
2019-04-01T01:55:06.977Z,9.93
2019-04-01T01:57:36.207Z,6.63
2019-04-01T02:00:06.402Z,11.03
2019-04-01T02:02:35.796Z,9.57
2019-04-01T02:05:05.560Z,9.97
2019-04-01T02:07:35.020Z,8.60
2019-04-01T02:10:04.557Z,5.67
2019-04-01T02:12:33.929Z,6.87
2019-04-01T02:15:03.340Z,9.67
2019-04-01T02:17:33.124Z,9.80
2019-04-01T02:20:02.544Z,7.00
2019-04-01T02:22:31.921Z,10.37
2019-04-01T02:25:01.401Z,7.70
2019-04-01T02:27:31.128Z,9.63
2019-04-01T02:30:00.578Z,7.93
2019-04-01T02:32:30.101Z,6.77
2019-04-01T02:34:59.372Z,11.87
2019-04-01T02:37:29.222Z,5.77
2019-04-01T02:39:59.159Z,6.40
2019-04-01T02:42:28.545Z,7.63
2019-04-01T02:44:57.756Z,12.50
2019-04-01T02:47:28.160Z,8.13
2019-04-01T02:49:57.681Z,11.20
2019-04-01T02:52:28.024Z,10.17
2019-04-01T02:54:57.649Z,10.27
2019-04-01T02:57:26.957Z,10.83
2019-04-01T02:59:56.227Z,11.07
2019-04-01T03:02:25.510Z,7.77
2019-04-01T03:04:54.820Z,11.70
2019-04-01T03:07:24.051Z,9.53
2019-04-01T03:09:53.629Z,8.43
2019-04-01T03:12:22.888Z,9.67
2019-04-01T03:14:52.160Z,10.37
2019-04-01T03:17:21.425Z,11.43
2019-04-01T03:19:50.689Z,9.03
2019-04-01T03:22:19.949Z,9.20
2019-04-01T03:24:49.171Z,10.30
2019-04-01T03:27:19.971Z,8.93
2019-04-01T03:29:49.205Z,14.15
2019-04-01T03:32:20.236Z,11.57
2019-04-01T03:34:49.576Z,12.70
2019-04-01T03:37:19.218Z,13.33
2019-04-01T03:39:48.442Z,10.83
2019-04-01T03:42:17.954Z,11.40
2019-04-01T03:44:47.185Z,11.87
2019-04-01T03:47:16.449Z,9.27
2019-04-01T03:49:45.670Z,11.27
2019-04-01T03:52:14.965Z,10.50
2019-04-01T03:54:44.179Z,11.80
2019-04-01T03:57:13.468Z,11.67
2019-04-01T03:59:42.732Z,11.10
2019-04-01T04:02:12.632Z,12.20
2019-04-01T04:04:41.873Z,10.53
2019-04-01T04:07:11.157Z,11.33
2019-04-01T04:09:40.428Z,10.13
2019-04-01T04:12:09.834Z,9.50
2019-04-01T04:14:39.068Z,12.10
2019-04-01T04:17:08.386Z,13.83
2019-04-01T04:19:37.663Z,10.43
2019-04-01T04:22:06.982Z,14.00
2019-04-01T04:24:36.584Z,11.97
2019-04-01T04:27:05.846Z,11.03
2019-04-01T04:29:35.062Z,9.23
2019-04-01T04:32:04.419Z,9.63
2019-04-01T04:34:33.671Z,10.60
2019-04-01T04:37:02.935Z,16.83
2019-04-01T04:39:32.521Z,14.57
2019-04-01T04:42:01.789Z,13.33
2019-04-01T04:44:31.293Z,12.60
2019-04-01T04:47:00.547Z,14.20
2019-04-01T04:49:29.827Z,14.73
2019-04-01T04:51:59.070Z,16.80
2019-04-01T04:54:28.313Z,11.33
2019-04-01T04:56:57.542Z,14.27
2019-04-01T04:59:27.119Z,15.47
2019-04-01T05:01:56.334Z,14.73
2019-04-01T05:04:27.889Z,14.87
2019-04-01T05:06:57.131Z,14.53
2019-04-01T05:09:26.359Z,14.43
2019-04-01T05:11:55.588Z,18.37
2019-04-01T05:14:24.877Z,16.90
2019-04-01T05:16:54.157Z,16.80
2019-04-01T05:19:23.740Z,15.63
2019-04-01T05:21:54.578Z,18.87
2019-04-01T05:24:25.134Z,15.30
2019-04-01T05:26:54.996Z,16.07
2019-04-01T05:29:26.055Z,14.37
2019-04-01T05:31:57.459Z,15.07
2019-04-01T05:34:29.422Z,14.20
2019-04-01T05:36:58.911Z,13.70
2019-04-01T05:39:28.804Z,15.77
2019-04-01T05:41:58.306Z,16.13
2019-04-01T05:44:28.562Z,17.57
2019-04-01T05:46:57.813Z,17.23
2019-04-01T05:49:27.484Z,19.00
2019-04-01T05:51:56.721Z,16.10
2019-04-01T05:54:26.225Z,15.43
2019-04-01T05:56:55.459Z,20.83
2019-04-01T05:59:24.867Z,19.23
2019-04-01T06:01:54.093Z,19.87
2019-04-01T06:04:23.410Z,16.83
2019-04-01T06:06:52.826Z,30.57
2019-04-01T06:09:22.459Z,17.20
2019-04-01T06:11:52.142Z,18.20
2019-04-01T06:14:22.017Z,19.37
2019-04-01T06:16:51.673Z,19.97
2019-04-01T06:19:20.956Z,18.27
2019-04-01T06:21:50.562Z,17.00
2019-04-01T06:24:19.833Z,18.37
2019-04-01T06:26:49.092Z,20.37
2019-04-01T06:29:18.364Z,18.37
2019-04-01T06:31:47.626Z,16.33
2019-04-01T06:34:16.906Z,14.63
2019-04-01T06:36:46.545Z,19.40
2019-04-01T06:39:16.382Z,12.83
2019-04-01T06:41:45.655Z,14.47
2019-04-01T06:44:14.927Z,15.83
2019-04-01T06:46:44.259Z,15.20
2019-04-01T06:49:13.542Z,18.70
2019-04-01T06:51:42.868Z,15.77
2019-04-01T06:54:12.118Z,17.83
2019-04-01T06:56:41.373Z,17.30
2019-04-01T06:59:10.948Z,16.27
2019-04-01T07:01:40.170Z,14.60
2019-04-01T07:04:10.522Z,12.80
2019-04-01T07:06:39.797Z,9.13
2019-04-01T07:09:09.266Z,13.47
2019-04-01T07:11:38.764Z,16.13
2019-04-01T07:14:08.129Z,13.00
2019-04-01T07:16:40.069Z,12.80
2019-04-01T07:19:08.466Z,9.67
2019-04-01T07:21:39.178Z,13.80
2019-04-01T07:24:08.568Z,8.50
2019-04-01T07:26:37.859Z,9.67
2019-04-01T07:29:07.245Z,11.20
2019-04-01T07:31:36.577Z,11.53
2019-04-01T07:34:05.857Z,11.47
2019-04-01T07:36:35.083Z,9.20
2019-04-01T07:39:05.907Z,9.03
2019-04-01T07:41:35.442Z,8.97
2019-04-01T07:44:05.058Z,10.80
2019-04-01T07:46:34.595Z,12.30
2019-04-01T07:49:04.028Z,8.90
2019-04-01T07:51:33.361Z,7.97
2019-04-01T07:54:02.660Z,9.00
2019-04-01T07:56:31.920Z,9.20
2019-04-01T07:59:01.164Z,9.07
2019-04-01T08:01:30.761Z,12.33
2019-04-01T08:04:00.115Z,9.30
2019-04-01T08:06:29.367Z,10.73
2019-04-01T08:08:59.431Z,10.53
2019-04-01T08:11:30.420Z,8.77
2019-04-01T08:14:00.779Z,9.37
2019-04-01T08:16:30.171Z,11.33
2019-04-01T08:18:59.538Z,11.77
2019-04-01T08:21:29.120Z,14.70
2019-04-01T08:23:59.308Z,12.60
2019-04-01T08:26:28.634Z,9.70
2019-04-01T08:28:58.001Z,10.93
2019-04-01T08:31:27.284Z,10.20
2019-04-01T08:33:56.518Z,11.00
2019-04-01T08:36:25.781Z,11.33
2019-04-01T08:38:55.689Z,8.50
2019-04-01T08:41:24.951Z,10.10
2019-04-01T08:43:54.218Z,10.77
2019-04-01T08:46:23.510Z,12.60
2019-04-01T08:48:52.828Z,11.07
2019-04-01T08:51:22.074Z,12.07
2019-04-01T08:53:51.533Z,12.93
2019-04-01T08:56:20.800Z,10.67
2019-04-01T08:58:50.073Z,12.23
2019-04-01T09:01:19.309Z,11.80
2019-04-01T09:03:48.882Z,11.10
2019-04-01T09:06:18.139Z,8.90
2019-04-01T09:08:48.302Z,10.47
2019-04-01T09:11:18.072Z,10.97
2019-04-01T09:13:47.641Z,12.73
2019-04-01T09:16:17.731Z,10.93
2019-04-01T09:18:47.007Z,11.03
2019-04-01T09:21:16.270Z,14.73
2019-04-01T09:23:45.563Z,11.10
2019-04-01T09:26:14.901Z,13.43
2019-04-01T09:28:44.251Z,13.87
2019-04-01T09:31:13.808Z,12.50
2019-04-01T09:33:43.050Z,11.50
2019-04-01T09:36:12.317Z,12.23
2019-04-01T09:38:41.613Z,14.73
2019-04-01T09:41:13.218Z,15.83
2019-04-01T09:43:42.165Z,13.33
2019-04-01T09:46:11.452Z,14.87
2019-04-01T09:48:40.730Z,13.60
2019-04-01T09:51:10.012Z,14.37
2019-04-01T09:53:39.572Z,14.40
2019-04-01T09:56:09.250Z,14.30
2019-04-01T09:58:38.859Z,14.37
2019-04-01T10:01:08.436Z,11.77
2019-04-01T10:03:38.597Z,16.33
2019-04-01T10:06:10.445Z,12.50
2019-04-01T10:08:42.680Z,14.57
2019-04-01T10:11:12.612Z,14.87
2019-04-01T10:13:41.650Z,15.97
2019-04-01T10:16:11.295Z,15.63
2019-04-01T10:18:40.722Z,16.13
2019-04-01T10:21:10.433Z,18.27
2019-04-01T10:23:39.884Z,16.93
2019-04-01T10:26:09.301Z,14.47
2019-04-01T10:28:38.797Z,16.20
2019-04-01T10:31:08.047Z,15.70
2019-04-01T10:33:37.353Z,15.57
2019-04-01T10:36:07.106Z,15.83
2019-04-01T10:38:36.360Z,14.20
2019-04-01T10:41:05.998Z,14.33
2019-04-01T10:43:35.260Z,16.93
2019-04-01T10:46:04.587Z,14.07
2019-04-01T10:48:34.214Z,16.30
2019-04-01T10:51:03.626Z,15.77
2019-04-01T10:53:32.989Z,14.83
2019-04-01T10:56:02.292Z,16.20
2019-04-01T10:58:31.570Z,15.43
2019-04-01T11:01:00.877Z,16.70
2019-04-01T11:03:30.123Z,16.77
2019-04-01T11:05:59.478Z,14.60
2019-04-01T11:08:28.886Z,16.23
2019-04-01T11:10:58.490Z,16.10
2019-04-01T11:13:27.753Z,16.57
2019-04-01T11:15:57.024Z,15.23
2019-04-01T11:18:26.288Z,16.33
2019-04-01T11:20:56.976Z,17.93
2019-04-01T11:23:26.405Z,16.00
2019-04-01T11:25:55.681Z,16.93
2019-04-01T11:28:24.969Z,16.27
2019-04-01T11:30:54.340Z,16.33
2019-04-01T11:33:24.148Z,17.73
2019-04-01T11:35:53.444Z,18.30
2019-04-01T11:38:24.976Z,16.70
2019-04-01T11:41:01.001Z,14.83
2019-04-01T11:43:53.774Z,15.77
2019-04-01T11:46:48.891Z,18.57
2019-04-01T11:49:56.981Z,15.43
2019-04-01T11:52:43.706Z,14.03
2019-04-01T12:29:39.145Z,13.73
2019-04-01T12:32:08.903Z,15.13
2019-04-01T12:34:42.198Z,14.57
2019-04-01T12:37:14.730Z,16.77
2019-04-01T12:39:48.083Z,15.73
2019-04-01T12:42:19.770Z,17.30
2019-04-01T12:44:50.917Z,18.97
2019-04-01T12:47:21.037Z,20.20
2019-04-01T12:49:50.484Z,13.90
2019-04-01T12:52:20.494Z,14.57
2019-04-01T12:54:52.301Z,15.27
2019-04-01T12:57:40.928Z,16.27
2019-04-01T13:00:12.474Z,15.50
2019-04-01T13:02:42.286Z,17.60
2019-04-01T13:05:11.865Z,17.20
2019-04-01T13:07:41.914Z,18.07
2019-04-01T13:10:14.080Z,18.50
2019-04-01T13:12:43.336Z,17.63
2019-04-01T13:15:13.273Z,18.30
2019-04-01T13:17:42.663Z,17.03
2019-04-01T13:20:13.890Z,18.37
2019-04-01T13:22:43.501Z,21.97
2019-04-01T13:25:15.466Z,18.30
2019-04-01T13:27:46.702Z,17.47
2019-04-01T13:33:57.120Z,17.73
2019-04-01T13:39:08.494Z,15.80
2019-04-01T13:41:42.892Z,15.85
2019-04-01T14:06:01.283Z,16.32
2019-04-01T14:08:31.297Z,16.80
2019-04-01T14:11:27.580Z,18.07
2019-04-01T15:48:08.170Z,16.90
2019-04-01T15:50:44.361Z,15.18
2019-04-01T15:53:32.654Z,18.10
2019-04-01T16:00:19.688Z,16.73
2019-04-01T16:02:56.258Z,18.60
2019-04-01T16:16:14.147Z,16.93
2019-04-01T16:18:53.036Z,14.85
2019-04-01T16:24:44.855Z,16.62
2019-04-01T16:27:27.906Z,17.05
2019-04-01T16:29:58.846Z,17.82
2019-04-01T16:32:36.754Z,25.80
2019-04-01T16:35:22.498Z,26.80
2019-04-01T16:37:59.389Z,26.97
2019-04-01T16:40:38.396Z,18.77
2019-04-01T16:43:32.536Z,38.60
2019-04-01T16:46:16.695Z,21.10
2019-04-01T16:48:57.553Z,23.67
2019-04-01T16:51:41.335Z,19.30
2019-04-01T18:05:01.744Z,18.03
2019-04-01T18:32:32.148Z,18.03
2019-04-01T22:03:50.207Z,15.67
2019-04-01T22:06:22.648Z,17.53
2019-04-01T22:08:56.076Z,17.07
2019-04-01T22:11:25.518Z,17.07
2019-04-01T22:13:55.151Z,16.87
2019-04-01T22:16:29.729Z,17.33
2019-04-01T22:19:00.899Z,17.70
2019-04-01T22:21:34.495Z,13.77
2019-04-01T22:24:12.710Z,16.83
2019-04-01T22:26:43.637Z,18.27
2019-04-01T22:29:13.914Z,15.10
2019-04-01T22:31:57.410Z,15.00
2019-04-01T22:35:05.175Z,17.30
2019-04-01T22:37:33.956Z,19.37
2019-04-01T22:40:03.492Z,17.73
2019-04-01T22:42:38.554Z,16.17
2019-04-01T22:45:10.795Z,19.93
2019-04-01T22:48:30.215Z,16.40
2019-04-01T22:50:59.555Z,20.93
